sensor_id;sensor_type;location;lat;lon;timestamp;P1;durP1;ratioP1;P2;durP2;ratioP2
5428;SDS011;2737;52.386;9.980;2022-11-15T00:02:20;15.53;;;8.87;;
5428;SDS011;2737;52.386;9.980;2022-11-15T00:04:47;13.07;;;8.77;;
5428;SDS011;2737;52.386;9.980;2022-11-15T00:07:16;14.37;;;8.67;;
5428;SDS011;2737;52.386;9.980;2022-11-15T00:09:43;14.30;;;7.50;;
5428;SDS011;2737;52.386;9.980;2022-11-15T00:12:10;17.20;;;8.50;;
5428;SDS011;2737;52.386;9.980;2022-11-15T00:14:37;14.10;;;8.30;;
5428;SDS011;2737;52.386;9.980;2022-11-15T00:17:04;14.20;;;8.50;;
5428;SDS011;2737;52.386;9.980;2022-11-15T00:19:31;14.37;;;8.20;;
5428;SDS011;2737;52.386;9.980;2022-11-15T00:21:58;12.23;;;8.03;;
5428;SDS011;2737;52.386;9.980;2022-11-15T00:24:27;11.83;;;7.30;;
5428;SDS011;2737;52.386;9.980;2022-11-15T00:26:54;16.47;;;8.37;;
5428;SDS011;2737;52.386;9.980;2022-11-15T00:29:21;10.93;;;7.40;;
5428;SDS011;2737;52.386;9.980;2022-11-15T00:31:48;12.47;;;7.77;;
5428;SDS011;2737;52.386;9.980;2022-11-15T00:34:15;9.93;;;6.70;;
5428;SDS011;2737;52.386;9.980;2022-11-15T00:36:42;13.90;;;8.10;;
5428;SDS011;2737;52.386;9.980;2022-11-15T00:39:09;15.30;;;8.30;;
5428;SDS011;2737;52.386;9.980;2022-11-15T00:41:37;12.07;;;7.90;;
5428;SDS011;2737;52.386;9.980;2022-11-15T00:44:05;13.60;;;7.43;;
5428;SDS011;2737;52.386;9.980;2022-11-15T00:46:32;25.53;;;7.50;;
5428;SDS011;2737;52.386;9.980;2022-11-15T00:48:59;12.67;;;8.03;;
5428;SDS011;2737;52.386;9.980;2022-11-15T00:51:26;12.70;;;8.40;;
5428;SDS011;2737;52.386;9.980;2022-11-15T00:53:53;11.60;;;7.40;;
5428;SDS011;2737;52.386;9.980;2022-11-15T00:56:20;13.60;;;7.83;;
5428;SDS011;2737;52.386;9.980;2022-11-15T00:58:48;10.90;;;7.77;;
5428;SDS011;2737;52.386;9.980;2022-11-15T01:01:15;12.43;;;8.27;;
5428;SDS011;2737;52.386;9.980;2022-11-15T01:03:42;14.80;;;7.47;;
5428;SDS011;2737;52.386;9.980;2022-11-15T01:06:09;11.93;;;7.87;;
5428;SDS011;2737;52.386;9.980;2022-11-15T01:08:39;16.93;;;8.00;;
5428;SDS011;2737;52.386;9.980;2022-11-15T01:11:07;12.90;;;8.20;;
5428;SDS011;2737;52.386;9.980;2022-11-15T01:13:35;14.30;;;8.57;;
5428;SDS011;2737;52.386;9.980;2022-11-15T01:16:08;11.50;;;7.57;;
5428;SDS011;2737;52.386;9.980;2022-11-15T01:18:38;12.67;;;7.87;;
5428;SDS011;2737;52.386;9.980;2022-11-15T01:21:06;13.23;;;8.30;;
5428;SDS011;2737;52.386;9.980;2022-11-15T01:23:34;14.90;;;7.23;;
5428;SDS011;2737;52.386;9.980;2022-11-15T01:26:02;13.53;;;8.67;;
5428;SDS011;2737;52.386;9.980;2022-11-15T01:28:31;16.23;;;8.50;;
5428;SDS011;2737;52.386;9.980;2022-11-15T01:30:58;13.77;;;8.93;;
5428;SDS011;2737;52.386;9.980;2022-11-15T01:33:27;20.40;;;9.53;;
5428;SDS011;2737;52.386;9.980;2022-11-15T01:35:55;13.30;;;8.00;;
5428;SDS011;2737;52.386;9.980;2022-11-15T01:38:22;13.70;;;8.80;;
5428;SDS011;2737;52.386;9.980;2022-11-15T01:40:49;13.50;;;8.90;;
5428;SDS011;2737;52.386;9.980;2022-11-15T01:43:20;15.67;;;7.83;;
5428;SDS011;2737;52.386;9.980;2022-11-15T01:45:50;13.30;;;8.00;;
5428;SDS011;2737;52.386;9.980;2022-11-15T01:48:21;14.70;;;8.40;;
5428;SDS011;2737;52.386;9.980;2022-11-15T01:50:53;18.60;;;9.47;;
5428;SDS011;2737;52.386;9.980;2022-11-15T01:53:20;11.77;;;8.00;;
5428;SDS011;2737;52.386;9.980;2022-11-15T01:55:50;11.83;;;7.60;;
5428;SDS011;2737;52.386;9.980;2022-11-15T01:58:18;13.50;;;8.00;;
5428;SDS011;2737;52.386;9.980;2022-11-15T02:00:45;12.47;;;8.70;;
5428;SDS011;2737;52.386;9.980;2022-11-15T02:03:13;11.77;;;7.93;;
5428;SDS011;2737;52.386;9.980;2022-11-15T02:05:40;10.93;;;7.57;;
5428;SDS011;2737;52.386;9.980;2022-11-15T02:08:10;13.27;;;7.97;;
5428;SDS011;2737;52.386;9.980;2022-11-15T02:10:45;12.20;;;7.90;;
5428;SDS011;2737;52.386;9.980;2022-11-15T02:13:13;11.57;;;7.93;;
5428;SDS011;2737;52.386;9.980;2022-11-15T02:15:42;14.43;;;7.80;;
5428;SDS011;2737;52.386;9.980;2022-11-15T02:18:19;13.80;;;7.80;;
5428;SDS011;2737;52.386;9.980;2022-11-15T02:20:54;12.93;;;8.03;;
5428;SDS011;2737;52.386;9.980;2022-11-15T02:23:35;16.13;;;8.40;;
5428;SDS011;2737;52.386;9.980;2022-11-15T02:26:37;12.50;;;8.00;;
5428;SDS011;2737;52.386;9.980;2022-11-15T02:29:21;12.87;;;8.37;;
5428;SDS011;2737;52.386;9.980;2022-11-15T02:31:59;14.20;;;8.10;;
5428;SDS011;2737;52.386;9.980;2022-11-15T02:34:35;12.27;;;8.50;;
5428;SDS011;2737;52.386;9.980;2022-11-15T02:37:16;13.10;;;7.37;;
5428;SDS011;2737;52.386;9.980;2022-11-15T02:39:49;11.50;;;8.20;;
5428;SDS011;2737;52.386;9.980;2022-11-15T02:42:21;11.50;;;8.03;;
5428;SDS011;2737;52.386;9.980;2022-11-15T02:45:11;11.53;;;7.30;;
5428;SDS011;2737;52.386;9.980;2022-11-15T02:47:45;13.40;;;7.70;;
5428;SDS011;2737;52.386;9.980;2022-11-15T02:50:16;13.33;;;7.97;;
5428;SDS011;2737;52.386;9.980;2022-11-15T02:52:45;10.90;;;7.60;;
5428;SDS011;2737;52.386;9.980;2022-11-15T02:55:27;13.33;;;7.20;;
5428;SDS011;2737;52.386;9.980;2022-11-15T02:58:00;15.67;;;9.30;;
5428;SDS011;2737;52.386;9.980;2022-11-15T03:00:44;10.60;;;7.00;;
5428;SDS011;2737;52.386;9.980;2022-11-15T03:03:30;11.77;;;7.77;;
5428;SDS011;2737;52.386;9.980;2022-11-15T03:06:13;12.20;;;8.30;;
5428;SDS011;2737;52.386;9.980;2022-11-15T03:08:48;11.60;;;8.00;;
5428;SDS011;2737;52.386;9.980;2022-11-15T03:11:23;11.93;;;8.30;;
5428;SDS011;2737;52.386;9.980;2022-11-15T03:13:53;12.87;;;8.10;;
5428;SDS011;2737;52.386;9.980;2022-11-15T03:16:25;14.50;;;8.30;;
5428;SDS011;2737;52.386;9.980;2022-11-15T03:18:59;12.77;;;8.50;;
5428;SDS011;2737;52.386;9.980;2022-11-15T03:21:33;14.00;;;9.20;;
5428;SDS011;2737;52.386;9.980;2022-11-15T03:24:02;11.90;;;8.30;;
5428;SDS011;2737;52.386;9.980;2022-11-15T03:26:32;10.80;;;7.73;;
5428;SDS011;2737;52.386;9.980;2022-11-15T03:29:03;14.03;;;7.57;;
5428;SDS011;2737;52.386;9.980;2022-11-15T03:31:35;13.60;;;7.73;;
5428;SDS011;2737;52.386;9.980;2022-11-15T03:34:19;13.37;;;7.57;;
5428;SDS011;2737;52.386;9.980;2022-11-15T03:36:52;18.77;;;9.03;;
5428;SDS011;2737;52.386;9.980;2022-11-15T03:39:20;15.10;;;8.30;;
5428;SDS011;2737;52.386;9.980;2022-11-15T03:41:48;12.40;;;8.30;;
5428;SDS011;2737;52.386;9.980;2022-11-15T03:44:26;13.03;;;8.17;;
5428;SDS011;2737;52.386;9.980;2022-11-15T03:47:02;13.07;;;8.53;;
5428;SDS011;2737;52.386;9.980;2022-11-15T03:49:35;17.63;;;9.37;;
5428;SDS011;2737;52.386;9.980;2022-11-15T03:52:07;20.00;;;11.07;;
5428;SDS011;2737;52.386;9.980;2022-11-15T03:54:36;18.30;;;11.60;;
5428;SDS011;2737;52.386;9.980;2022-11-15T03:57:03;17.30;;;11.07;;
5428;SDS011;2737;52.386;9.980;2022-11-15T03:59:30;20.03;;;11.30;;
5428;SDS011;2737;52.386;9.980;2022-11-15T04:01:57;15.50;;;10.33;;
5428;SDS011;2737;52.386;9.980;2022-11-15T04:04:24;16.13;;;9.53;;
5428;SDS011;2737;52.386;9.980;2022-11-15T04:06:52;14.80;;;9.40;;
5428;SDS011;2737;52.386;9.980;2022-11-15T04:09:19;18.33;;;9.97;;
5428;SDS011;2737;52.386;9.980;2022-11-15T04:11:46;17.60;;;9.23;;
5428;SDS011;2737;52.386;9.980;2022-11-15T04:14:13;18.00;;;10.10;;
5428;SDS011;2737;52.386;9.980;2022-11-15T04:16:40;17.70;;;9.97;;
5428;SDS011;2737;52.386;9.980;2022-11-15T04:19:07;12.13;;;8.57;;
5428;SDS011;2737;52.386;9.980;2022-11-15T04:21:53;16.53;;;9.13;;
5428;SDS011;2737;52.386;9.980;2022-11-15T04:24:37;15.50;;;8.90;;
5428;SDS011;2737;52.386;9.980;2022-11-15T04:27:04;13.40;;;7.87;;
5428;SDS011;2737;52.386;9.980;2022-11-15T04:29:31;16.07;;;8.97;;
5428;SDS011;2737;52.386;9.980;2022-11-15T04:32:01;14.13;;;8.83;;
5428;SDS011;2737;52.386;9.980;2022-11-15T04:34:28;12.73;;;7.70;;
5428;SDS011;2737;52.386;9.980;2022-11-15T04:36:57;14.60;;;8.40;;
5428;SDS011;2737;52.386;9.980;2022-11-15T04:39:41;15.73;;;7.30;;
5428;SDS011;2737;52.386;9.980;2022-11-15T04:42:09;8.37;;;6.70;;
5428;SDS011;2737;52.386;9.980;2022-11-15T04:44:36;12.27;;;7.23;;
5428;SDS011;2737;52.386;9.980;2022-11-15T04:47:03;10.00;;;6.10;;
5428;SDS011;2737;52.386;9.980;2022-11-15T04:49:31;8.73;;;6.10;;
5428;SDS011;2737;52.386;9.980;2022-11-15T04:51:59;12.30;;;6.43;;
5428;SDS011;2737;52.386;9.980;2022-11-15T04:54:26;7.63;;;6.00;;
5428;SDS011;2737;52.386;9.980;2022-11-15T04:56:53;19.77;;;6.00;;
5428;SDS011;2737;52.386;9.980;2022-11-15T04:59:20;18.23;;;6.60;;
5428;SDS011;2737;52.386;9.980;2022-11-15T05:01:47;9.30;;;5.60;;
5428;SDS011;2737;52.386;9.980;2022-11-15T05:04:14;12.47;;;6.73;;
5428;SDS011;2737;52.386;9.980;2022-11-15T05:06:47;13.10;;;6.93;;
5428;SDS011;2737;52.386;9.980;2022-11-15T05:09:16;11.30;;;5.97;;
5428;SDS011;2737;52.386;9.980;2022-11-15T05:11:43;7.97;;;6.27;;
5428;SDS011;2737;52.386;9.980;2022-11-15T05:14:11;10.93;;;5.87;;
5428;SDS011;2737;52.386;9.980;2022-11-15T05:16:38;10.73;;;5.90;;
5428;SDS011;2737;52.386;9.980;2022-11-15T05:19:05;13.37;;;6.10;;
5428;SDS011;2737;52.386;9.980;2022-11-15T05:21:33;13.90;;;6.80;;
5428;SDS011;2737;52.386;9.980;2022-11-15T05:24:01;14.00;;;6.37;;
5428;SDS011;2737;52.386;9.980;2022-11-15T05:26:30;10.50;;;6.30;;
5428;SDS011;2737;52.386;9.980;2022-11-15T05:28:57;9.67;;;6.10;;
5428;SDS011;2737;52.386;9.980;2022-11-15T05:31:25;12.70;;;5.93;;
5428;SDS011;2737;52.386;9.980;2022-11-15T05:33:53;11.67;;;5.53;;
5428;SDS011;2737;52.386;9.980;2022-11-15T05:36:25;10.57;;;6.57;;
5428;SDS011;2737;52.386;9.980;2022-11-15T05:38:56;10.43;;;6.13;;
5428;SDS011;2737;52.386;9.980;2022-11-15T05:41:24;13.93;;;5.63;;
5428;SDS011;2737;52.386;9.980;2022-11-15T05:43:57;10.10;;;5.80;;
5428;SDS011;2737;52.386;9.980;2022-11-15T05:46:26;8.70;;;5.60;;
5428;SDS011;2737;52.386;9.980;2022-11-15T05:48:53;10.13;;;6.13;;
5428;SDS011;2737;52.386;9.980;2022-11-15T05:51:22;10.27;;;5.90;;
5428;SDS011;2737;52.386;9.980;2022-11-15T05:53:50;9.10;;;5.47;;
5428;SDS011;2737;52.386;9.980;2022-11-15T05:56:18;10.50;;;5.30;;
5428;SDS011;2737;52.386;9.980;2022-11-15T05:58:45;10.80;;;6.20;;
5428;SDS011;2737;52.386;9.980;2022-11-15T06:01:14;8.50;;;5.23;;
5428;SDS011;2737;52.386;9.980;2022-11-15T06:03:41;9.70;;;5.27;;
5428;SDS011;2737;52.386;9.980;2022-11-15T06:06:08;9.80;;;5.37;;
5428;SDS011;2737;52.386;9.980;2022-11-15T06:08:35;10.20;;;6.40;;
5428;SDS011;2737;52.386;9.980;2022-11-15T06:11:03;8.60;;;5.07;;
5428;SDS011;2737;52.386;9.980;2022-11-15T06:13:31;6.40;;;4.50;;
5428;SDS011;2737;52.386;9.980;2022-11-15T06:15:58;6.07;;;4.93;;
5428;SDS011;2737;52.386;9.980;2022-11-15T06:18:27;8.50;;;5.07;;
5428;SDS011;2737;52.386;9.980;2022-11-15T06:20:54;10.37;;;5.60;;
5428;SDS011;2737;52.386;9.980;2022-11-15T06:23:25;6.40;;;4.90;;
5428;SDS011;2737;52.386;9.980;2022-11-15T06:25:52;7.57;;;4.90;;
5428;SDS011;2737;52.386;9.980;2022-11-15T06:28:19;6.97;;;4.67;;
5428;SDS011;2737;52.386;9.980;2022-11-15T06:30:46;7.47;;;4.30;;
5428;SDS011;2737;52.386;9.980;2022-11-15T06:33:13;7.10;;;4.73;;
5428;SDS011;2737;52.386;9.980;2022-11-15T06:35:41;9.47;;;5.40;;
5428;SDS011;2737;52.386;9.980;2022-11-15T06:38:09;8.50;;;5.50;;
5428;SDS011;2737;52.386;9.980;2022-11-15T06:40:38;7.70;;;5.40;;
5428;SDS011;2737;52.386;9.980;2022-11-15T06:43:06;6.87;;;5.10;;
5428;SDS011;2737;52.386;9.980;2022-11-15T06:45:33;10.97;;;5.13;;
5428;SDS011;2737;52.386;9.980;2022-11-15T06:48:00;13.63;;;5.70;;
5428;SDS011;2737;52.386;9.980;2022-11-15T06:50:28;7.83;;;5.40;;
5428;SDS011;2737;52.386;9.980;2022-11-15T06:52:58;14.50;;;6.23;;
5428;SDS011;2737;52.386;9.980;2022-11-15T06:55:27;9.13;;;5.77;;
5428;SDS011;2737;52.386;9.980;2022-11-15T06:57:54;7.53;;;4.93;;
5428;SDS011;2737;52.386;9.980;2022-11-15T07:00:21;8.70;;;5.40;;
5428;SDS011;2737;52.386;9.980;2022-11-15T07:02:48;6.97;;;5.00;;
5428;SDS011;2737;52.386;9.980;2022-11-15T07:05:16;7.30;;;4.77;;
5428;SDS011;2737;52.386;9.980;2022-11-15T07:07:43;9.67;;;5.77;;
5428;SDS011;2737;52.386;9.980;2022-11-15T07:10:18;7.77;;;4.63;;
5428;SDS011;2737;52.386;9.980;2022-11-15T07:12:46;7.30;;;5.10;;
5428;SDS011;2737;52.386;9.980;2022-11-15T07:15:13;9.50;;;5.20;;
5428;SDS011;2737;52.386;9.980;2022-11-15T07:17:41;8.97;;;5.30;;
5428;SDS011;2737;52.386;9.980;2022-11-15T07:20:08;8.40;;;5.80;;
5428;SDS011;2737;52.386;9.980;2022-11-15T07:22:35;10.23;;;5.17;;
5428;SDS011;2737;52.386;9.980;2022-11-15T07:25:02;7.87;;;4.80;;
5428;SDS011;2737;52.386;9.980;2022-11-15T07:27:31;9.90;;;5.80;;
5428;SDS011;2737;52.386;9.980;2022-11-15T07:29:58;9.80;;;5.60;;
5428;SDS011;2737;52.386;9.980;2022-11-15T07:32:25;10.83;;;6.23;;
5428;SDS011;2737;52.386;9.980;2022-11-15T07:34:53;8.33;;;5.17;;
5428;SDS011;2737;52.386;9.980;2022-11-15T07:37:20;8.40;;;5.57;;
5428;SDS011;2737;52.386;9.980;2022-11-15T07:39:47;10.13;;;5.47;;
5428;SDS011;2737;52.386;9.980;2022-11-15T07:42:14;10.80;;;5.40;;
5428;SDS011;2737;52.386;9.980;2022-11-15T07:44:59;6.00;;;4.70;;
5428;SDS011;2737;52.386;9.980;2022-11-15T07:47:28;8.50;;;5.30;;
5428;SDS011;2737;52.386;9.980;2022-11-15T07:49:55;10.50;;;5.23;;
5428;SDS011;2737;52.386;9.980;2022-11-15T07:52:22;8.17;;;4.97;;
5428;SDS011;2737;52.386;9.980;2022-11-15T07:54:49;6.87;;;4.57;;
5428;SDS011;2737;52.386;9.980;2022-11-15T07:57:16;8.03;;;4.70;;
5428;SDS011;2737;52.386;9.980;2022-11-15T07:59:43;8.30;;;4.63;;
5428;SDS011;2737;52.386;9.980;2022-11-15T08:02:11;7.53;;;4.77;;
5428;SDS011;2737;52.386;9.980;2022-11-15T08:04:38;9.77;;;4.70;;
5428;SDS011;2737;52.386;9.980;2022-11-15T08:07:05;6.50;;;4.20;;
5428;SDS011;2737;52.386;9.980;2022-11-15T08:09:32;5.50;;;4.23;;
5428;SDS011;2737;52.386;9.980;2022-11-15T08:11:59;7.23;;;4.27;;
5428;SDS011;2737;52.386;9.980;2022-11-15T08:14:26;6.47;;;4.40;;
5428;SDS011;2737;52.386;9.980;2022-11-15T08:16:54;6.20;;;3.97;;
5428;SDS011;2737;52.386;9.980;2022-11-15T08:19:22;9.07;;;4.50;;
5428;SDS011;2737;52.386;9.980;2022-11-15T08:21:49;9.30;;;4.90;;
5428;SDS011;2737;52.386;9.980;2022-11-15T08:24:16;17.47;;;7.20;;
5428;SDS011;2737;52.386;9.980;2022-11-15T08:26:43;18.53;;;7.60;;
5428;SDS011;2737;52.386;9.980;2022-11-15T08:29:10;17.53;;;7.67;;
5428;SDS011;2737;52.386;9.980;2022-11-15T08:31:37;14.57;;;6.60;;
5428;SDS011;2737;52.386;9.980;2022-11-15T08:34:05;12.30;;;5.53;;
5428;SDS011;2737;52.386;9.980;2022-11-15T08:36:34;7.60;;;4.40;;
5428;SDS011;2737;52.386;9.980;2022-11-15T08:39:01;7.17;;;4.50;;
5428;SDS011;2737;52.386;9.980;2022-11-15T08:41:30;7.03;;;4.33;;
5428;SDS011;2737;52.386;9.980;2022-11-15T08:44:00;16.53;;;5.53;;
5428;SDS011;2737;52.386;9.980;2022-11-15T08:46:27;7.40;;;4.73;;
5428;SDS011;2737;52.386;9.980;2022-11-15T08:48:54;9.97;;;4.57;;
5428;SDS011;2737;52.386;9.980;2022-11-15T08:51:21;9.07;;;4.17;;
5428;SDS011;2737;52.386;9.980;2022-11-15T08:53:50;6.87;;;4.57;;
5428;SDS011;2737;52.386;9.980;2022-11-15T08:56:17;7.87;;;4.20;;
5428;SDS011;2737;52.386;9.980;2022-11-15T08:58:44;9.73;;;4.67;;
5428;SDS011;2737;52.386;9.980;2022-11-15T09:01:15;9.17;;;4.50;;
5428;SDS011;2737;52.386;9.980;2022-11-15T09:03:43;7.40;;;3.97;;
5428;SDS011;2737;52.386;9.980;2022-11-15T09:06:10;6.37;;;3.77;;
5428;SDS011;2737;52.386;9.980;2022-11-15T09:08:37;4.93;;;3.97;;
5428;SDS011;2737;52.386;9.980;2022-11-15T09:11:06;9.17;;;3.70;;
5428;SDS011;2737;52.386;9.980;2022-11-15T09:13:34;5.50;;;4.00;;
5428;SDS011;2737;52.386;9.980;2022-11-15T09:16:03;10.23;;;4.37;;
5428;SDS011;2737;52.386;9.980;2022-11-15T09:18:30;12.47;;;4.50;;
5428;SDS011;2737;52.386;9.980;2022-11-15T09:20:58;12.57;;;4.63;;
5428;SDS011;2737;52.386;9.980;2022-11-15T09:23:25;6.93;;;4.13;;
5428;SDS011;2737;52.386;9.980;2022-11-15T09:25:57;9.03;;;3.63;;
5428;SDS011;2737;52.386;9.980;2022-11-15T09:28:26;6.80;;;3.50;;
5428;SDS011;2737;52.386;9.980;2022-11-15T09:30:55;11.40;;;4.10;;
5428;SDS011;2737;52.386;9.980;2022-11-15T09:33:24;5.50;;;3.43;;
5428;SDS011;2737;52.386;9.980;2022-11-15T09:35:51;4.80;;;3.60;;
5428;SDS011;2737;52.386;9.980;2022-11-15T09:38:18;5.37;;;3.90;;
5428;SDS011;2737;52.386;9.980;2022-11-15T09:40:45;10.43;;;4.33;;
5428;SDS011;2737;52.386;9.980;2022-11-15T09:43:31;5.43;;;3.53;;
5428;SDS011;2737;52.386;9.980;2022-11-15T09:46:08;6.70;;;3.80;;
5428;SDS011;2737;52.386;9.980;2022-11-15T09:48:51;8.23;;;4.43;;
5428;SDS011;2737;52.386;9.980;2022-11-15T09:51:27;5.63;;;3.50;;
5428;SDS011;2737;52.386;9.980;2022-11-15T09:54:03;5.23;;;3.70;;
5428;SDS011;2737;52.386;9.980;2022-11-15T09:56:36;6.67;;;3.40;;
5428;SDS011;2737;52.386;9.980;2022-11-15T09:59:10;8.13;;;3.70;;
5428;SDS011;2737;52.386;9.980;2022-11-15T10:01:49;5.87;;;4.07;;
5428;SDS011;2737;52.386;9.980;2022-11-15T10:04:25;3.90;;;3.50;;
5428;SDS011;2737;52.386;9.980;2022-11-15T10:06:54;4.90;;;3.60;;
5428;SDS011;2737;52.386;9.980;2022-11-15T10:09:28;8.73;;;4.03;;
5428;SDS011;2737;52.386;9.980;2022-11-15T10:12:02;6.93;;;3.47;;
5428;SDS011;2737;52.386;9.980;2022-11-15T10:14:30;8.07;;;3.97;;
5428;SDS011;2737;52.386;9.980;2022-11-15T10:20:05;6.13;;;3.40;;
5428;SDS011;2737;52.386;9.980;2022-11-15T10:22:39;3.63;;;3.10;;
5428;SDS011;2737;52.386;9.980;2022-11-15T10:25:16;4.47;;;3.20;;
5428;SDS011;2737;52.386;9.980;2022-11-15T10:27:50;7.53;;;3.90;;
5428;SDS011;2737;52.386;9.980;2022-11-15T10:30:21;3.83;;;3.10;;
5428;SDS011;2737;52.386;9.980;2022-11-15T10:32:49;4.23;;;3.07;;
5428;SDS011;2737;52.386;9.980;2022-11-15T10:35:17;4.50;;;3.10;;
5428;SDS011;2737;52.386;9.980;2022-11-15T10:38:02;4.60;;;3.30;;
5428;SDS011;2737;52.386;9.980;2022-11-15T10:40:32;7.43;;;3.90;;
5428;SDS011;2737;52.386;9.980;2022-11-15T10:43:04;5.73;;;3.40;;
5428;SDS011;2737;52.386;9.980;2022-11-15T10:45:39;3.67;;;2.90;;
5428;SDS011;2737;52.386;9.980;2022-11-15T10:48:23;5.53;;;3.10;;
5428;SDS011;2737;52.386;9.980;2022-11-15T10:50:51;3.40;;;2.60;;
5428;SDS011;2737;52.386;9.980;2022-11-15T10:53:25;7.20;;;3.53;;
5428;SDS011;2737;52.386;9.980;2022-11-15T10:55:57;4.40;;;2.70;;
5428;SDS011;2737;52.386;9.980;2022-11-15T10:58:30;6.50;;;3.43;;
5428;SDS011;2737;52.386;9.980;2022-11-15T11:01:11;4.20;;;3.10;;
5428;SDS011;2737;52.386;9.980;2022-11-15T11:03:41;6.30;;;3.00;;
5428;SDS011;2737;52.386;9.980;2022-11-15T11:06:10;3.70;;;3.00;;
5428;SDS011;2737;52.386;9.980;2022-11-15T11:08:39;3.90;;;2.60;;
5428;SDS011;2737;52.386;9.980;2022-11-15T11:11:07;3.47;;;2.73;;
5428;SDS011;2737;52.386;9.980;2022-11-15T11:13:35;5.73;;;2.93;;
5428;SDS011;2737;52.386;9.980;2022-11-15T11:19:08;7.53;;;2.77;;
5428;SDS011;2737;52.386;9.980;2022-11-15T11:21:46;5.53;;;2.23;;
5428;SDS011;2737;52.386;9.980;2022-11-15T11:24:21;3.23;;;2.40;;
5428;SDS011;2737;52.386;9.980;2022-11-15T11:27:00;4.00;;;2.47;;
5428;SDS011;2737;52.386;9.980;2022-11-15T11:29:43;4.47;;;2.60;;
5428;SDS011;2737;52.386;9.980;2022-11-15T11:32:26;2.93;;;2.30;;
5428;SDS011;2737;52.386;9.980;2022-11-15T11:35:08;5.27;;;2.83;;
5428;SDS011;2737;52.386;9.980;2022-11-15T11:37:41;10.40;;;2.27;;
5428;SDS011;2737;52.386;9.980;2022-11-15T11:40:16;4.17;;;2.67;;
5428;SDS011;2737;52.386;9.980;2022-11-15T11:42:56;3.80;;;2.30;;
5428;SDS011;2737;52.386;9.980;2022-11-15T11:45:39;5.10;;;2.50;;
5428;SDS011;2737;52.386;9.980;2022-11-15T11:48:31;6.23;;;2.80;;
5428;SDS011;2737;52.386;9.980;2022-11-15T11:51:10;6.17;;;2.90;;
5428;SDS011;2737;52.386;9.980;2022-11-15T11:53:43;3.43;;;2.60;;
5428;SDS011;2737;52.386;9.980;2022-11-15T11:56:22;5.80;;;2.70;;
5428;SDS011;2737;52.386;9.980;2022-11-15T11:58:53;6.37;;;2.63;;
5428;SDS011;2737;52.386;9.980;2022-11-15T12:01:23;6.83;;;3.30;;
5428;SDS011;2737;52.386;9.980;2022-11-15T12:03:54;8.50;;;3.03;;
5428;SDS011;2737;52.386;9.980;2022-11-15T12:06:29;6.93;;;3.03;;
5428;SDS011;2737;52.386;9.980;2022-11-15T12:09:01;6.20;;;2.40;;
5428;SDS011;2737;52.386;9.980;2022-11-15T12:11:35;3.80;;;2.20;;
5428;SDS011;2737;52.386;9.980;2022-11-15T12:14:11;7.00;;;2.87;;
5428;SDS011;2737;52.386;9.980;2022-11-15T12:16:45;12.67;;;2.43;;
5428;SDS011;2737;52.386;9.980;2022-11-15T12:19:12;4.30;;;2.50;;
5428;SDS011;2737;52.386;9.980;2022-11-15T12:21:43;5.90;;;2.73;;
5428;SDS011;2737;52.386;9.980;2022-11-15T12:24:14;4.30;;;2.57;;
5428;SDS011;2737;52.386;9.980;2022-11-15T12:26:45;4.40;;;2.60;;
5428;SDS011;2737;52.386;9.980;2022-11-15T12:29:19;4.00;;;2.40;;
5428;SDS011;2737;52.386;9.980;2022-11-15T12:31:51;4.00;;;2.60;;
5428;SDS011;2737;52.386;9.980;2022-11-15T12:34:41;4.40;;;2.93;;
5428;SDS011;2737;52.386;9.980;2022-11-15T12:40:27;6.33;;;2.50;;
5428;SDS011;2737;52.386;9.980;2022-11-15T12:43:00;6.60;;;3.07;;
5428;SDS011;2737;52.386;9.980;2022-11-15T12:45:52;3.60;;;2.53;;
5428;SDS011;2737;52.386;9.980;2022-11-15T12:51:23;6.60;;;4.10;;
5428;SDS011;2737;52.386;9.980;2022-11-15T12:54:50;9.50;;;2.90;;
5428;SDS011;2737;52.386;9.980;2022-11-15T12:57:46;4.90;;;2.67;;
5428;SDS011;2737;52.386;9.980;2022-11-15T13:03:19;4.63;;;2.50;;
5428;SDS011;2737;52.386;9.980;2022-11-15T13:05:57;14.97;;;3.33;;
5428;SDS011;2737;52.386;9.980;2022-11-15T13:17:15;5.80;;;3.00;;
5428;SDS011;2737;52.386;9.980;2022-11-15T13:19:57;4.57;;;2.63;;
5428;SDS011;2737;52.386;9.980;2022-11-15T13:22:37;5.33;;;2.93;;
5428;SDS011;2737;52.386;9.980;2022-11-15T13:25:27;5.80;;;2.90;;
5428;SDS011;2737;52.386;9.980;2022-11-15T13:28:20;8.47;;;2.90;;
5428;SDS011;2737;52.386;9.980;2022-11-15T13:30:52;3.60;;;3.07;;
5428;SDS011;2737;52.386;9.980;2022-11-15T13:33:22;7.23;;;2.43;;
5428;SDS011;2737;52.386;9.980;2022-11-15T13:35:52;9.37;;;3.07;;
5428;SDS011;2737;52.386;9.980;2022-11-15T13:38:25;6.40;;;4.10;;
5428;SDS011;2737;52.386;9.980;2022-11-15T13:40:54;12.70;;;4.70;;
5428;SDS011;2737;52.386;9.980;2022-11-15T13:43:29;3.60;;;2.40;;
5428;SDS011;2737;52.386;9.980;2022-11-15T13:46:05;4.20;;;2.57;;
5428;SDS011;2737;52.386;9.980;2022-11-15T13:48:33;5.30;;;2.77;;
5428;SDS011;2737;52.386;9.980;2022-11-15T13:51:00;4.50;;;2.47;;
5428;SDS011;2737;52.386;9.980;2022-11-15T13:53:30;5.27;;;2.77;;
5428;SDS011;2737;52.386;9.980;2022-11-15T13:55:58;4.13;;;2.53;;
5428;SDS011;2737;52.386;9.980;2022-11-15T13:58:25;4.70;;;2.30;;
5428;SDS011;2737;52.386;9.980;2022-11-15T14:00:58;5.50;;;2.90;;
5428;SDS011;2737;52.386;9.980;2022-11-15T14:03:28;7.83;;;2.57;;
5428;SDS011;2737;52.386;9.980;2022-11-15T14:06:04;11.83;;;2.93;;
5428;SDS011;2737;52.386;9.980;2022-11-15T14:08:37;5.27;;;2.57;;
5428;SDS011;2737;52.386;9.980;2022-11-15T14:11:06;5.87;;;2.70;;
5428;SDS011;2737;52.386;9.980;2022-11-15T14:13:59;8.50;;;2.60;;
5428;SDS011;2737;52.386;9.980;2022-11-15T14:16:42;4.20;;;2.60;;
5428;SDS011;2737;52.386;9.980;2022-11-15T14:19:12;5.30;;;2.47;;
5428;SDS011;2737;52.386;9.980;2022-11-15T14:22:16;5.10;;;2.33;;
5428;SDS011;2737;52.386;9.980;2022-11-15T14:24:46;7.20;;;2.20;;
5428;SDS011;2737;52.386;9.980;2022-11-15T14:27:30;3.90;;;2.10;;
5428;SDS011;2737;52.386;9.980;2022-11-15T14:29:59;6.93;;;2.33;;
5428;SDS011;2737;52.386;9.980;2022-11-15T14:32:27;3.63;;;2.27;;
5428;SDS011;2737;52.386;9.980;2022-11-15T14:34:57;3.63;;;2.00;;
5428;SDS011;2737;52.386;9.980;2022-11-15T14:37:25;3.07;;;2.40;;
5428;SDS011;2737;52.386;9.980;2022-11-15T14:39:54;4.93;;;2.40;;
5428;SDS011;2737;52.386;9.980;2022-11-15T14:42:21;11.87;;;2.60;;
5428;SDS011;2737;52.386;9.980;2022-11-15T14:44:49;4.23;;;2.33;;
5428;SDS011;2737;52.386;9.980;2022-11-15T14:47:16;4.10;;;2.57;;
5428;SDS011;2737;52.386;9.980;2022-11-15T14:49:44;4.90;;;2.80;;
5428;SDS011;2737;52.386;9.980;2022-11-15T14:52:23;8.30;;;4.90;;
5428;SDS011;2737;52.386;9.980;2022-11-15T14:54:52;2.40;;;2.10;;
5428;SDS011;2737;52.386;9.980;2022-11-15T14:57:20;5.50;;;2.90;;
5428;SDS011;2737;52.386;9.980;2022-11-15T14:59:47;5.53;;;2.47;;
5428;SDS011;2737;52.386;9.980;2022-11-15T15:02:15;2.33;;;2.10;;
5428;SDS011;2737;52.386;9.980;2022-11-15T15:04:44;7.83;;;2.70;;
5428;SDS011;2737;52.386;9.980;2022-11-15T15:07:11;6.10;;;2.60;;
5428;SDS011;2737;52.386;9.980;2022-11-15T15:09:40;4.77;;;2.90;;
5428;SDS011;2737;52.386;9.980;2022-11-15T15:12:12;3.43;;;2.57;;
5428;SDS011;2737;52.386;9.980;2022-11-15T15:14:42;3.40;;;2.50;;
5428;SDS011;2737;52.386;9.980;2022-11-15T15:17:09;4.70;;;2.77;;
5428;SDS011;2737;52.386;9.980;2022-11-15T15:19:37;5.60;;;2.77;;
5428;SDS011;2737;52.386;9.980;2022-11-15T15:22:04;6.37;;;3.43;;
5428;SDS011;2737;52.386;9.980;2022-11-15T15:24:31;4.30;;;2.93;;
5428;SDS011;2737;52.386;9.980;2022-11-15T15:27:00;5.83;;;3.73;;
5428;SDS011;2737;52.386;9.980;2022-11-15T15:29:27;5.23;;;3.10;;
5428;SDS011;2737;52.386;9.980;2022-11-15T15:31:54;4.27;;;3.40;;
5428;SDS011;2737;52.386;9.980;2022-11-15T15:34:21;4.13;;;3.10;;
5428;SDS011;2737;52.386;9.980;2022-11-15T15:36:49;7.70;;;3.60;;
5428;SDS011;2737;52.386;9.980;2022-11-15T15:39:16;8.27;;;4.97;;
5428;SDS011;2737;52.386;9.980;2022-11-15T15:41:43;3.47;;;2.83;;
5428;SDS011;2737;52.386;9.980;2022-11-15T15:44:11;6.70;;;3.20;;
5428;SDS011;2737;52.386;9.980;2022-11-15T15:46:38;5.07;;;3.10;;
5428;SDS011;2737;52.386;9.980;2022-11-15T15:49:07;5.17;;;3.30;;
5428;SDS011;2737;52.386;9.980;2022-11-15T15:51:35;6.03;;;3.67;;
5428;SDS011;2737;52.386;9.980;2022-11-15T15:54:02;7.43;;;3.77;;
5428;SDS011;2737;52.386;9.980;2022-11-15T15:56:30;6.57;;;3.90;;
5428;SDS011;2737;52.386;9.980;2022-11-15T15:58:57;9.13;;;4.10;;